Time;durP1;ratioP1;P1;durP2;ratioP2;P2;SDS_P1;SDS_P2;PMS_P1;PMS_P2;Temp;Humidity;BMP_temperature;BMP_pressure;BME280_temperature;BME280_humidity;BME280_pressure;Samples;Min_cycle;Max_cycle;Signal;HPM_P1;HPM_P2
2023/03/06 00:02:12;;;;;;;11.85;7.63;;;;;;;;;;5117145;28;20182;-77
2023/03/06 00:04:38;;;;;;;14.65;8.25;;;;;;;;;;5117775;28;20222;-76
2023/03/06 00:07:04;;;;;;;11.55;7.50;;;;;;;;;;5118123;28;20179;-77
2023/03/06 00:09:30;;;;;;;11.50;8.15;;;;;;;;;;5116914;28;20180;-82
2023/03/06 00:11:56;;;;;;;12.27;8.05;;;;;;;;;;5115795;28;20186;-77
2023/03/06 00:14:22;;;;;;;11.27;7.30;;;;;;;;;;5117596;28;20512;-77
2023/03/06 00:16:48;;;;;;;15.70;9.32;;;;;;;;;;5118542;28;20182;-78
2023/03/06 00:19:14;;;;;;;10.00;7.60;;;;;;;;;;5118007;28;20249;-77
2023/03/06 00:21:41;;;;;;;17.20;9.77;;;;;;;;;;5098374;28;20218;-77
2023/03/06 00:24:07;;;;;;;13.70;8.38;;;;;;;;;;5098824;28;20434;-76
2023/03/06 00:26:34;;;;;;;16.35;9.65;;;;;;;;;;5117595;28;20506;-77
2023/03/06 00:29:00;;;;;;;16.02;10.00;;;;;;;;;;5116939;28;20185;-76
2023/03/06 00:31:26;;;;;;;21.43;13.80;;;;;;;;;;5116950;28;20191;-77
2023/03/06 00:33:52;;;;;;;20.50;12.43;;;;;;;;;;5117056;28;20408;-77
2023/03/06 00:36:18;;;;;;;21.00;12.70;;;;;;;;;;5117527;28;20832;-77
2023/03/06 00:38:44;;;;;;;22.98;14.93;;;;;;;;;;5117686;28;20432;-76
2023/03/06 00:41:11;;;;;;;24.58;15.55;;;;;;;;;;5117490;28;20220;-77
2023/03/06 00:43:37;;;;;;;26.55;15.35;;;;;;;;;;5099797;28;20168;-77
2023/03/06 00:46:04;;;;;;;26.90;15.48;;;;;;;;;;5116893;28;20569;-77
2023/03/06 00:48:30;;;;;;;26.15;15.45;;;;;;;;;;5098622;28;20609;-78
2023/03/06 00:50:56;;;;;;;26.65;16.13;;;;;;;;;;5115838;28;20504;-77
2023/03/06 00:53:22;;;;;;;25.83;15.57;;;;;;;;;;5117299;28;20186;-77
2023/03/06 00:55:49;;;;;;;25.60;15.60;;;;;;;;;;5116768;28;20623;-77
2023/03/06 00:58:15;;;;;;;28.20;17.13;;;;;;;;;;5116657;28;20166;-76
2023/03/06 01:00:41;;;;;;;22.00;14.98;;;;;;;;;;5116593;28;20202;-77
2023/03/06 01:03:07;;;;;;;24.38;16.00;;;;;;;;;;5116694;28;20186;-77
2023/03/06 01:05:34;;;;;;;24.88;16.98;;;;;;;;;;5116872;28;20685;-77
2023/03/06 01:08:00;;;;;;;25.45;14.50;;;;;;;;;;5098911;28;20202;-77
2023/03/06 01:10:27;;;;;;;26.25;17.35;;;;;;;;;;5116914;28;20194;-77
2023/03/06 01:12:53;;;;;;;26.85;16.35;;;;;;;;;;5120537;28;20186;-78
2023/03/06 01:15:19;;;;;;;23.95;16.50;;;;;;;;;;5105132;28;20646;-77
2023/03/06 01:17:45;;;;;;;29.17;17.17;;;;;;;;;;5123748;28;20185;-77
2023/03/06 01:20:15;;;;;;;31.73;16.65;;;;;;;;;;5123329;28;20633;-76
2023/03/06 01:22:41;;;;;;;24.88;16.23;;;;;;;;;;5123629;28;20645;-76
2023/03/06 01:25:08;;;;;;;26.05;15.80;;;;;;;;;;5105670;28;20206;-76
2023/03/06 01:27:34;;;;;;;31.65;18.42;;;;;;;;;;5123756;28;20174;-77
2023/03/06 01:30:00;;;;;;;29.02;18.02;;;;;;;;;;5105136;28;20217;-77
2023/03/06 01:32:26;;;;;;;30.75;18.27;;;;;;;;;;5123908;28;20170;-76
2023/03/06 01:34:53;;;;;;;29.92;17.70;;;;;;;;;;5124169;28;20189;-77
2023/03/06 01:37:19;;;;;;;26.83;18.25;;;;;;;;;;5123866;28;20253;-77
2023/03/06 01:39:45;;;;;;;36.25;19.27;;;;;;;;;;5123720;28;20180;-77
2023/03/06 01:42:11;;;;;;;32.92;18.85;;;;;;;;;;5123149;28;20254;-77
2023/03/06 01:44:37;;;;;;;32.78;17.33;;;;;;;;;;5123876;28;20178;-77
2023/03/06 01:47:03;;;;;;;28.42;17.17;;;;;;;;;;5123805;28;20221;-77
2023/03/06 01:49:37;;;;;;;27.60;18.77;;;;;;;;;;5105517;28;20665;-77
2023/03/06 01:52:06;;;;;;;35.70;20.27;;;;;;;;;;5123496;28;20239;-77
2023/03/06 01:54:37;;;;;;;31.55;18.55;;;;;;;;;;5123550;28;20261;-76
2023/03/06 01:57:06;;;;;;;36.15;20.38;;;;;;;;;;5123661;28;20172;-77
2023/03/06 01:59:34;;;;;;;34.63;19.17;;;;;;;;;;5123747;28;20516;-76
2023/03/06 02:02:02;;;;;;;29.70;20.58;;;;;;;;;;5123625;28;20211;-77
2023/03/06 02:04:28;;;;;;;35.15;21.10;;;;;;;;;;5123809;28;20313;-76
2023/03/06 02:06:55;;;;;;;40.88;19.88;;;;;;;;;;5123875;28;20799;-76
2023/03/06 02:09:22;;;;;;;33.78;21.42;;;;;;;;;;5123167;28;20573;-77
2023/03/06 02:11:48;;;;;;;34.78;21.05;;;;;;;;;;5123387;28;20171;-76
2023/03/06 02:14:15;;;;;;;40.08;20.20;;;;;;;;;;5123796;28;20178;-76
2023/03/06 02:16:41;;;;;;;41.40;22.40;;;;;;;;;;5105449;28;20182;-76
2023/03/06 02:19:14;;;;;;;36.63;21.85;;;;;;;;;;5123308;28;20179;-77
2023/03/06 02:21:40;;;;;;;38.22;23.35;;;;;;;;;;5123466;28;20560;-77
2023/03/06 02:24:06;;;;;;;35.03;22.30;;;;;;;;;;5121311;28;20661;-77
2023/03/06 02:26:33;;;;;;;33.50;20.40;;;;;;;;;;5120261;28;20174;-76
2023/03/06 02:28:59;;;;;;;38.42;19.60;;;;;;;;;;5120275;28;20171;-77
2023/03/06 02:31:27;;;;;;;34.00;19.90;;;;;;;;;;5120093;28;20263;-76
2023/03/06 02:34:12;;;;;;;36.45;23.45;;;;;;;;;;5120094;28;20170;-77
2023/03/06 02:36:42;;;;;;;36.97;22.20;;;;;;;;;;5120022;28;20573;-76
2023/03/06 02:39:08;;;;;;;38.78;23.23;;;;;;;;;;5119862;28;20178;-77
2023/03/06 02:41:35;;;;;;;35.88;21.40;;;;;;;;;;5119643;28;20219;-77
2023/03/06 02:44:01;;;;;;;39.30;23.13;;;;;;;;;;5119355;28;20186;-78
2023/03/06 02:46:27;;;;;;;38.03;22.67;;;;;;;;;;5120292;28;20505;-78
2023/03/06 02:48:53;;;;;;;39.80;23.63;;;;;;;;;;5120104;28;20171;-77
2023/03/06 02:51:19;;;;;;;39.38;23.05;;;;;;;;;;5101523;28;20511;-77
2023/03/06 02:53:45;;;;;;;41.40;23.95;;;;;;;;;;5119830;28;20190;-77
2023/03/06 02:56:11;;;;;;;45.65;23.05;;;;;;;;;;5119474;28;20179;-77
2023/03/06 02:58:37;;;;;;;41.78;23.05;;;;;;;;;;5119929;28;20518;-77
2023/03/06 03:01:03;;;;;;;35.78;20.67;;;;;;;;;;5119487;28;20267;-78
2023/03/06 03:03:29;;;;;;;43.75;23.50;;;;;;;;;;5119851;28;20179;-77
2023/03/06 03:05:55;;;;;;;36.17;23.00;;;;;;;;;;5101385;28;20234;-77
2023/03/06 03:08:21;;;;;;;37.97;22.35;;;;;;;;;;5119260;28;20190;-77
2023/03/06 03:10:47;;;;;;;36.80;21.02;;;;;;;;;;5119811;28;20194;-77
2023/03/06 03:13:13;;;;;;;38.58;22.85;;;;;;;;;;5101341;28;20186;-77
2023/03/06 03:15:40;;;;;;;45.58;22.77;;;;;;;;;;5119749;28;20179;-77
2023/03/06 03:18:06;;;;;;;40.92;24.52;;;;;;;;;;5119350;28;20665;-77
2023/03/06 03:20:32;;;;;;;40.75;23.92;;;;;;;;;;5084073;28;20685;-77
2023/03/06 03:22:58;;;;;;;42.10;24.30;;;;;;;;;;5119157;28;20183;-76
2023/03/06 03:25:25;;;;;;;44.88;25.20;;;;;;;;;;5100622;28;20172;-77
2023/03/06 03:27:51;;;;;;;38.35;23.85;;;;;;;;;;5119399;28;20266;-77
2023/03/06 03:30:17;;;;;;;38.75;23.33;;;;;;;;;;5118673;28;20177;-77
2023/03/06 03:32:43;;;;;;;39.17;23.38;;;;;;;;;;5100948;28;20178;-78
2023/03/06 03:35:10;;;;;;;42.25;21.83;;;;;;;;;;5118293;28;20179;-77
2023/03/06 03:37:37;;;;;;;47.10;23.50;;;;;;;;;;5099766;28;20179;-77
2023/03/06 03:40:04;;;;;;;46.30;24.15;;;;;;;;;;5118611;28;20167;-79
2023/03/06 03:42:31;;;;;;;43.92;24.77;;;;;;;;;;5119319;28;20172;-77
2023/03/06 03:44:57;;;;;;;46.90;24.70;;;;;;;;;;5118940;28;20175;-77
2023/03/06 03:47:22;;;;;;;45.42;25.67;;;;;;;;;;5118350;28;20174;-77
2023/03/06 03:49:48;;;;;;;46.95;23.95;;;;;;;;;;5118975;28;20185;-76
2023/03/06 03:52:14;;;;;;;41.53;24.40;;;;;;;;;;5118258;28;20523;-77
2023/03/06 03:54:41;;;;;;;42.75;23.25;;;;;;;;;;5118320;28;20239;-77
2023/03/06 03:57:07;;;;;;;43.83;24.10;;;;;;;;;;5117960;28;20212;-76
2023/03/06 03:59:33;;;;;;;47.38;23.73;;;;;;;;;;5118794;28;20183;-76
2023/03/06 04:01:59;;;;;;;42.80;24.35;;;;;;;;;;5118003;28;20210;-77
2023/03/06 04:04:25;;;;;;;43.15;22.13;;;;;;;;;;5118283;28;20293;-77
2023/03/06 04:06:51;;;;;;;48.10;24.92;;;;;;;;;;5118591;28;20167;-76
2023/03/06 04:09:17;;;;;;;46.80;23.80;;;;;;;;;;5118163;28;20168;-76
2023/03/06 04:11:43;;;;;;;49.38;23.60;;;;;;;;;;5118443;28;20273;-76
2023/03/06 04:14:09;;;;;;;43.13;22.08;;;;;;;;;;5118133;28;20212;-77
2023/03/06 04:16:35;;;;;;;40.97;22.05;;;;;;;;;;5118696;28;20525;-77
2023/03/06 04:19:01;;;;;;;41.00;24.25;;;;;;;;;;5118116;28;20181;-77
2023/03/06 04:21:28;;;;;;;43.10;22.73;;;;;;;;;;5117979;28;20737;-77
2023/03/06 04:23:54;;;;;;;49.88;24.90;;;;;;;;;;5118305;28;20181;-77
2023/03/06 04:26:20;;;;;;;45.42;25.10;;;;;;;;;;5117549;28;20177;-77
2023/03/06 04:28:46;;;;;;;44.35;23.23;;;;;;;;;;5117820;28;20180;-77
2023/03/06 04:31:12;;;;;;;43.53;23.80;;;;;;;;;;5099479;28;20182;-77
2023/03/06 04:33:38;;;;;;;43.85;23.63;;;;;;;;;;5118226;28;20263;-77
2023/03/06 04:36:04;;;;;;;45.17;25.65;;;;;;;;;;5118097;28;20292;-77
2023/03/06 04:38:31;;;;;;;43.97;23.55;;;;;;;;;;5118042;28;20174;-77
2023/03/06 04:40:57;;;;;;;42.58;20.30;;;;;;;;;;5117828;28;20206;-77
2023/03/06 04:43:23;;;;;;;40.20;21.33;;;;;;;;;;5117391;28;20218;-77
2023/03/06 04:45:49;;;;;;;47.05;23.95;;;;;;;;;;5117419;28;20168;-78
2023/03/06 04:48:16;;;;;;;45.47;23.63;;;;;;;;;;5116473;28;20183;-78
2023/03/06 04:50:42;;;;;;;50.95;22.88;;;;;;;;;;5117721;28;20524;-77
2023/03/06 04:53:09;;;;;;;42.70;23.98;;;;;;;;;;5099276;28;20214;-77
2023/03/06 04:55:35;;;;;;;43.80;24.33;;;;;;;;;;5117646;28;20174;-77
2023/03/06 04:58:01;;;;;;;46.80;24.50;;;;;;;;;;5117319;28;20642;-77
2023/03/06 05:00:29;;;;;;;43.65;22.88;;;;;;;;;;5098069;28;21027;-77
2023/03/06 05:02:55;;;;;;;51.67;22.13;;;;;;;;;;5117780;28;20196;-78
2023/03/06 05:05:21;;;;;;;43.03;24.63;;;;;;;;;;5116877;28;20770;-77
2023/03/06 05:07:47;;;;;;;45.85;23.35;;;;;;;;;;5117742;28;20526;-77
2023/03/06 05:10:14;;;;;;;53.13;26.47;;;;;;;;;;5117212;28;20183;-77
2023/03/06 05:12:40;;;;;;;44.13;22.35;;;;;;;;;;5098736;28;20745;-77
2023/03/06 05:15:07;;;;;;;51.30;26.02;;;;;;;;;;5117108;28;20254;-76
2023/03/06 05:17:33;;;;;;;42.70;24.77;;;;;;;;;;5116943;28;20171;-77
2023/03/06 05:19:59;;;;;;;43.20;24.67;;;;;;;;;;5117692;28;20554;-77
2023/03/06 05:22:25;;;;;;;49.50;24.40;;;;;;;;;;5117234;28;20185;-77
2023/03/06 05:24:51;;;;;;;43.42;24.33;;;;;;;;;;5116940;28;20178;-77
2023/03/06 05:27:17;;;;;;;50.07;26.37;;;;;;;;;;5116435;28;20562;-77
2023/03/06 05:29:43;;;;;;;51.47;25.80;;;;;;;;;;5116632;28;20443;-77
2023/03/06 05:32:09;;;;;;;42.20;24.10;;;;;;;;;;5116720;28;20417;-78
2023/03/06 05:34:35;;;;;;;42.40;24.58;;;;;;;;;;5117557;28;20873;-77
2023/03/06 05:37:01;;;;;;;44.92;25.48;;;;;;;;;;5116846;28;20178;-77
2023/03/06 05:39:27;;;;;;;44.00;24.27;;;;;;;;;;5116712;28;20182;-77
2023/03/06 05:41:53;;;;;;;44.78;23.58;;;;;;;;;;5116596;28;20468;-78
2023/03/06 05:44:19;;;;;;;46.15;25.40;;;;;;;;;;5098265;28;20231;-77
2023/03/06 05:46:48;;;;;;;47.67;25.30;;;;;;;;;;5116862;28;20278;-77
2023/03/06 05:49:14;;;;;;;44.63;24.20;;;;;;;;;;5117229;28;20260;-76
2023/03/06 05:51:40;;;;;;;43.72;23.52;;;;;;;;;;5116998;28;20178;-77
2023/03/06 05:54:06;;;;;;;48.47;27.00;;;;;;;;;;5117043;28;20519;-77
2023/03/06 05:56:32;;;;;;;51.13;27.00;;;;;;;;;;5116437;28;20456;-77
2023/03/06 05:58:57;;;;;;;42.70;26.13;;;;;;;;;;5117093;28;20214;-77
2023/03/06 06:01:24;;;;;;;48.10;24.67;;;;;;;;;;5120349;28;20462;-77
2023/03/06 06:03:50;;;;;;;57.10;27.40;;;;;;;;;;5120372;28;20412;-77
2023/03/06 06:06:16;;;;;;;45.83;23.23;;;;;;;;;;5120381;28;20229;-77
2023/03/06 06:08:42;;;;;;;51.53;26.05;;;;;;;;;;5120807;28;20179;-77
2023/03/06 06:11:09;;;;;;;53.85;29.00;;;;;;;;;;5102793;28;20221;-76
2023/03/06 06:13:36;;;;;;;54.55;27.60;;;;;;;;;;5120333;28;20658;-77
2023/03/06 06:16:14;;;;;;;50.88;26.88;;;;;;;;;;5120044;28;20197;-77
2023/03/06 06:18:40;;;;;;;52.08;26.95;;;;;;;;;;5120702;28;20217;-77
2023/03/06 06:21:07;;;;;;;47.17;25.15;;;;;;;;;;5120708;28;20272;-77
2023/03/06 06:23:33;;;;;;;48.42;25.27;;;;;;;;;;5101915;28;20171;-78
2023/03/06 06:26:00;;;;;;;47.22;26.58;;;;;;;;;;5120544;28;20198;-77
2023/03/06 06:28:27;;;;;;;53.90;26.67;;;;;;;;;;5120305;28;20166;-77
2023/03/06 06:30:53;;;;;;;49.00;26.30;;;;;;;;;;5119713;28;20194;-77
2023/03/06 06:33:19;;;;;;;50.90;26.57;;;;;;;;;;5119483;28;20665;-76
2023/03/06 06:35:45;;;;;;;50.70;25.23;;;;;;;;;;5101486;28;20519;-77
2023/03/06 06:38:11;;;;;;;47.53;25.53;;;;;;;;;;5120109;28;20413;-77
2023/03/06 06:40:37;;;;;;;48.40;26.10;;;;;;;;;;5119217;28;20463;-77
2023/03/06 06:43:03;;;;;;;45.85;26.70;;;;;;;;;;5119860;28;20481;-78
2023/03/06 06:45:29;;;;;;;43.28;24.95;;;;;;;;;;5119487;28;20537;-77
2023/03/06 06:47:55;;;;;;;50.10;26.70;;;;;;;;;;5119806;28;20182;-78
2023/03/06 06:50:21;;;;;;;59.13;28.75;;;;;;;;;;5119585;28;20174;-77
2023/03/06 06:52:47;;;;;;;49.85;27.15;;;;;;;;;;5119637;28;20186;-78
2023/03/06 06:55:13;;;;;;;49.50;27.83;;;;;;;;;;5119721;28;20182;-78
2023/03/06 06:57:39;;;;;;;51.47;28.45;;;;;;;;;;5119289;28;20243;-77
2023/03/06 07:00:06;;;;;;;48.22;27.52;;;;;;;;;;5119460;28;20197;-77
2023/03/06 07:02:32;;;;;;;53.60;28.27;;;;;;;;;;5119629;28;20174;-77
2023/03/06 07:04:58;;;;;;;53.20;26.77;;;;;;;;;;5119409;28;20585;-77
2023/03/06 07:07:24;;;;;;;55.67;26.58;;;;;;;;;;5119374;28;20178;-77
2023/03/06 07:09:50;;;;;;;50.03;26.38;;;;;;;;;;5119239;28;20179;-77
2023/03/06 07:12:16;;;;;;;48.00;28.38;;;;;;;;;;5119405;28;20178;-77
2023/03/06 07:14:42;;;;;;;52.60;28.77;;;;;;;;;;5119130;28;20212;-77
2023/03/06 07:17:09;;;;;;;54.85;28.13;;;;;;;;;;5119274;28;20176;-77
2023/03/06 07:19:35;;;;;;;45.08;23.33;;;;;;;;;;5118992;28;20218;-78
2023/03/06 07:22:01;;;;;;;47.33;24.65;;;;;;;;;;5118938;28;20542;-77
2023/03/06 07:24:27;;;;;;;49.70;26.02;;;;;;;;;;5118997;28;20175;-77
2023/03/06 07:26:54;;;;;;;52.10;23.55;;;;;;;;;;5119300;28;20607;-77
2023/03/06 07:29:20;;;;;;;44.92;26.08;;;;;;;;;;5118847;28;20538;-77
2023/03/06 07:31:46;;;;;;;44.13;24.00;;;;;;;;;;5118149;28;20190;-77
2023/03/06 07:34:12;;;;;;;51.17;26.23;;;;;;;;;;5118425;28;20265;-78
2023/03/06 07:36:41;;;;;;;43.15;23.27;;;;;;;;;;5117818;28;20228;-78
2023/03/06 07:39:08;;;;;;;44.72;25.92;;;;;;;;;;5118269;28;20634;-77
2023/03/06 07:41:34;;;;;;;47.67;25.08;;;;;;;;;;5118226;28;20291;-77
2023/03/06 07:44:00;;;;;;;43.33;22.48;;;;;;;;;;5118527;28;20175;-78
2023/03/06 07:46:26;;;;;;;49.17;25.98;;;;;;;;;;5099627;28;20209;-78
2023/03/06 07:48:52;;;;;;;34.95;19.05;;;;;;;;;;5118265;28;20235;-77
2023/03/06 07:51:19;;;;;;;42.28;22.65;;;;;;;;;;5117565;28;20183;-80
2023/03/06 07:53:46;;;;;;;43.90;23.75;;;;;;;;;;5117595;28;20182;-78
2023/03/06 07:56:12;;;;;;;48.53;24.23;;;;;;;;;;5118130;28;20174;-78
2023/03/06 07:58:40;;;;;;;39.50;22.63;;;;;;;;;;5116889;28;20174;-78
2023/03/06 08:01:07;;;;;;;49.03;26.25;;;;;;;;;;5117341;28;20192;-78
2023/03/06 08:03:33;;;;;;;47.97;24.63;;;;;;;;;;5117289;28;20167;-78
2023/03/06 08:06:15;;;;;;;49.92;26.88;;;;;;;;;;5117598;28;20311;-78
2023/03/06 08:08:43;;;;;;;47.05;22.65;;;;;;;;;;5117559;28;20182;-78
2023/03/06 08:11:10;;;;;;;43.95;24.58;;;;;;;;;;5117584;28;20171;-78
2023/03/06 08:13:36;;;;;;;49.30;27.90;;;;;;;;;;5117762;28;20186;-78
2023/03/06 08:16:03;;;;;;;42.72;22.88;;;;;;;;;;5117553;28;20191;-78
2023/03/06 08:18:29;;;;;;;48.50;23.30;;;;;;;;;;5116999;28;20175;-78
2023/03/06 08:21:05;;;;;;;44.30;22.50;;;;;;;;;;5098802;28;20754;-78
2023/03/06 08:23:31;;;;;;;46.80;22.63;;;;;;;;;;5116617;28;20167;-78
2023/03/06 08:25:58;;;;;;;34.22;20.67;;;;;;;;;;5117225;28;20653;-78
2023/03/06 08:28:24;;;;;;;42.97;22.08;;;;;;;;;;5117032;28;20203;-78
2023/03/06 08:30:50;;;;;;;32.72;20.55;;;;;;;;;;5117109;28;20188;-78
2023/03/06 08:33:16;;;;;;;35.65;20.70;;;;;;;;;;5116800;28;20183;-78
2023/03/06 08:35:42;;;;;;;38.70;21.35;;;;;;;;;;5116330;28;20194;-78
2023/03/06 08:38:08;;;;;;;40.30;21.77;;;;;;;;;;5098782;28;20187;-78
2023/03/06 08:40:34;;;;;;;35.73;19.50;;;;;;;;;;5116796;28;20491;-78
2023/03/06 08:43:00;;;;;;;32.92;21.45;;;;;;;;;;5116458;28;20405;-78
2023/03/06 08:45:26;;;;;;;34.53;20.40;;;;;;;;;;5098447;28;20172;-78
2023/03/06 08:47:52;;;;;;;35.50;19.38;;;;;;;;;;5116672;28;20417;-78
2023/03/06 08:50:18;;;;;;;39.00;19.63;;;;;;;;;;5098383;28;20523;-78
2023/03/06 08:52:44;;;;;;;33.78;20.00;;;;;;;;;;5098016;28;20629;-78
2023/03/06 08:55:10;;;;;;;31.27;19.50;;;;;;;;;;5116548;28;20271;-79
2023/03/06 08:57:36;;;;;;;35.83;21.92;;;;;;;;;;5098202;28;20183;-78
2023/03/06 09:00:07;;;;;;;28.95;17.73;;;;;;;;;;5116082;28;20185;-78
2023/03/06 09:02:34;;;;;;;32.58;18.80;;;;;;;;;;5116233;28;20180;-78
2023/03/06 09:05:00;;;;;;;34.45;20.08;;;;;;;;;;5115611;28;20227;-78
2023/03/06 09:07:26;;;;;;;32.15;19.27;;;;;;;;;;5115948;28;20194;-78
2023/03/06 09:09:56;;;;;;;30.92;18.63;;;;;;;;;;5098056;28;20685;-78
2023/03/06 09:12:23;;;;;;;32.47;19.52;;;;;;;;;;5097365;28;20179;-83
2023/03/06 09:14:49;;;;;;;35.72;20.27;;;;;;;;;;5116498;28;20183;-79
2023/03/06 09:17:15;;;;;;;39.88;19.92;;;;;;;;;;5098289;28;20542;-78
2023/03/06 09:19:41;;;;;;;35.95;19.75;;;;;;;;;;5116097;28;20183;-79
2023/03/06 09:22:07;;;;;;;32.28;20.48;;;;;;;;;;5097474;28;20236;-79
2023/03/06 09:24:33;;;;;;;30.67;17.83;;;;;;;;;;5115706;28;20222;-78
2023/03/06 09:26:59;;;;;;;32.28;18.13;;;;;;;;;;5097858;28;20187;-79
2023/03/06 09:29:25;;;;;;;41.75;19.60;;;;;;;;;;5116053;28;20205;-79
2023/03/06 09:31:51;;;;;;;30.80;18.38;;;;;;;;;;5116167;28;20172;-78
2023/03/06 09:34:17;;;;;;;37.17;21.23;;;;;;;;;;5117954;28;20194;-79
2023/03/06 09:36:43;;;;;;;34.53;20.23;;;;;;;;;;5120282;28;20189;-79
2023/03/06 09:39:09;;;;;;;29.37;19.80;;;;;;;;;;5119840;28;20409;-78
2023/03/06 09:41:37;;;;;;;30.83;21.25;;;;;;;;;;5119740;28;20968;-79
2023/03/06 09:44:10;;;;;;;34.38;22.10;;;;;;;;;;5120391;28;20168;-78
2023/03/06 09:46:55;;;;;;;32.83;19.38;;;;;;;;;;5119530;28;20171;-78
2023/03/06 09:49:24;;;;;;;33.60;21.75;;;;;;;;;;5120388;28;20171;-79
2023/03/06 09:51:50;;;;;;;29.55;17.13;;;;;;;;;;5119713;28;20175;-78
2023/03/06 09:54:16;;;;;;;26.67;16.20;;;;;;;;;;5119511;28;20178;-79
2023/03/06 09:56:49;;;;;;;31.00;20.10;;;;;;;;;;5119547;28;20436;-79
2023/03/06 09:59:25;;;;;;;27.55;16.60;;;;;;;;;;5119095;28;20167;-79
2023/03/06 10:02:02;;;;;;;31.55;18.35;;;;;;;;;;5119705;28;20215;-78
2023/03/06 10:04:34;;;;;;;33.92;19.73;;;;;;;;;;5119392;28;20225;-79
2023/03/06 10:07:01;;;;;;;31.58;20.52;;;;;;;;;;5101301;28;20248;-78
2023/03/06 10:09:41;;;;;;;29.88;18.65;;;;;;;;;;5118915;28;20179;-79
2023/03/06 10:12:27;;;;;;;32.40;20.00;;;;;;;;;;5119273;28;20171;-79
2023/03/06 10:15:07;;;;;;;31.45;19.83;;;;;;;;;;5119369;28;20308;-79
2023/03/06 10:17:35;;;;;;;33.03;18.98;;;;;;;;;;5119001;28;20505;-79
2023/03/06 10:20:06;;;;;;;30.27;16.67;;;;;;;;;;5119315;28;20186;-79
2023/03/06 10:22:32;;;;;;;27.58;17.65;;;;;;;;;;5118968;28;20518;-78
2023/03/06 10:25:05;;;;;;;28.57;17.50;;;;;;;;;;5118786;28;20179;-79
2023/03/06 10:27:31;;;;;;;24.70;16.98;;;;;;;;;;5119089;28;20402;-79
2023/03/06 10:30:00;;;;;;;24.60;15.18;;;;;;;;;;5119619;28;20174;-79
2023/03/06 10:32:26;;;;;;;26.60;17.20;;;;;;;;;;5101426;28;20175;-79
2023/03/06 10:34:53;;;;;;;23.42;14.85;;;;;;;;;;5118684;28;20191;-79
2023/03/06 10:37:20;;;;;;;26.63;15.40;;;;;;;;;;5100511;28;20175;-79
2023/03/06 10:39:48;;;;;;;21.40;13.20;;;;;;;;;;5118886;28;20227;-78
2023/03/06 10:42:14;;;;;;;27.60;16.83;;;;;;;;;;5119503;28;20198;-78
2023/03/06 10:44:39;;;;;;;24.47;13.90;;;;;;;;;;5118748;28;20272;-79
2023/03/06 10:47:44;;;;;;;28.50;16.90;;;;;;;;;;5118564;28;20948;-78
2023/03/06 10:50:25;;;;;;;29.02;16.80;;;;;;;;;;5016381;28;20655;-79
2023/03/06 10:53:01;;;;;;;31.42;17.95;;;;;;;;;;5015834;28;20587;-78
2023/03/06 10:55:29;;;;;;;22.73;15.25;;;;;;;;;;5081865;28;20263;-79
2023/03/06 10:57:55;;;;;;;29.63;15.77;;;;;;;;;;5118471;28;20256;-79
2023/03/06 11:00:32;;;;;;;35.53;19.73;;;;;;;;;;5118630;28;20182;-78
2023/03/06 11:03:10;;;;;;;28.23;16.23;;;;;;;;;;5118444;28;20166;-79
2023/03/06 11:05:36;;;;;;;25.67;16.40;;;;;;;;;;5117912;28;20216;-79
2023/03/06 11:08:02;;;;;;;29.48;17.42;;;;;;;;;;5100183;28;20495;-79
2023/03/06 11:10:30;;;;;;;32.15;18.90;;;;;;;;;;5118218;28;20225;-79
2023/03/06 11:13:01;;;;;;;28.17;18.23;;;;;;;;;;5118139;28;20174;-79
2023/03/06 11:15:28;;;;;;;26.02;14.93;;;;;;;;;;5117787;28;20203;-80
2023/03/06 11:17:56;;;;;;;23.92;15.45;;;;;;;;;;5117730;28;20179;-79
2023/03/06 11:20:24;;;;;;;20.63;13.38;;;;;;;;;;5118090;28;20220;-79
2023/03/06 11:22:53;;;;;;;22.73;13.00;;;;;;;;;;5117913;28;20183;-78
2023/03/06 11:25:21;;;;;;;25.08;15.15;;;;;;;;;;5118263;28;20174;-79
2023/03/06 11:27:53;;;;;;;21.73;13.38;;;;;;;;;;5099054;28;20264;-79
2023/03/06 11:30:21;;;;;;;20.75;13.15;;;;;;;;;;5118109;28;20634;-78
2023/03/06 11:32:49;;;;;;;22.75;12.88;;;;;;;;;;5117679;28;20231;-78
2023/03/06 11:35:25;;;;;;;20.30;12.63;;;;;;;;;;5118337;28;20253;-79
2023/03/06 11:37:53;;;;;;;29.98;14.73;;;;;;;;;;5117835;28;20219;-79
2023/03/06 11:40:23;;;;;;;21.98;12.68;;;;;;;;;;5117584;28;20196;-78
2023/03/06 11:42:55;;;;;;;22.52;14.20;;;;;;;;;;5099000;28;20207;-79
2023/03/06 11:45:24;;;;;;;23.60;13.07;;;;;;;;;;5118000;28;20160;-79
2023/03/06 11:48:09;;;;;;;18.73;11.35;;;;;;;;;;5117442;28;20185;-79
2023/03/06 11:50:42;;;;;;;22.52;12.60;;;;;;;;;;5117143;28;20174;-79
2023/03/06 11:53:27;;;;;;;17.67;11.90;;;;;;;;;;5117652;28;20233;-79
2023/03/06 11:56:13;;;;;;;17.83;12.50;;;;;;;;;;5117671;28;20171;-79
2023/03/06 11:58:57;;;;;;;17.58;10.75;;;;;;;;;;5116072;28;20203;-79
2023/03/06 12:01:41;;;;;;;16.70;9.40;;;;;;;;;;5117109;28;20207;-79
2023/03/06 12:04:10;;;;;;;16.60;11.50;;;;;;;;;;5117408;28;20175;-78
2023/03/06 12:06:42;;;;;;;17.08;11.18;;;;;;;;;;5117201;28;20535;-79
2023/03/06 12:09:11;;;;;;;18.00;11.02;;;;;;;;;;5117379;28;20168;-79
2023/03/06 12:11:49;;;;;;;16.20;11.23;;;;;;;;;;5117462;28;20182;-79
2023/03/06 12:14:37;;;;;;;17.02;9.88;;;;;;;;;;5117647;28;20171;-79
2023/03/06 12:17:12;;;;;;;15.80;10.00;;;;;;;;;;5117456;28;20163;-79
2023/03/06 12:19:49;;;;;;;12.45;8.05;;;;;;;;;;5117573;28;20164;-79
2023/03/06 12:22:31;;;;;;;17.85;10.07;;;;;;;;;;5117148;28;20547;-78
2023/03/06 12:25:04;;;;;;;17.70;10.15;;;;;;;;;;5098628;28;20263;-78
2023/03/06 12:27:30;;;;;;;16.60;10.15;;;;;;;;;;5117007;28;20181;-79
2023/03/06 12:29:56;;;;;;;14.95;9.32;;;;;;;;;;5116099;28;20634;-79
2023/03/06 12:32:33;;;;;;;14.35;8.73;;;;;;;;;;5117085;28;20171;-79
2023/03/06 12:35:18;;;;;;;12.88;8.73;;;;;;;;;;5116982;28;20176;-79
2023/03/06 12:37:56;;;;;;;16.27;10.38;;;;;;;;;;5117335;28;20203;-79
2023/03/06 12:40:38;;;;;;;13.15;8.20;;;;;;;;;;5116471;28;20171;-79
2023/03/06 12:43:13;;;;;;;18.00;10.23;;;;;;;;;;5116419;28;20647;-79
2023/03/06 12:45:42;;;;;;;15.23;8.50;;;;;;;;;;5098316;28;20186;-78
2023/03/06 12:48:10;;;;;;;17.30;9.77;;;;;;;;;;5116997;28;20592;-79
2023/03/06 12:50:37;;;;;;;15.38;9.07;;;;;;;;;;5116129;28;20250;-80
2023/03/06 12:53:05;;;;;;;16.13;10.00;;;;;;;;;;5116635;28;20199;-79
2023/03/06 12:55:37;;;;;;;14.30;9.30;;;;;;;;;;5116311;28;20168;-79
2023/03/06 12:58:21;;;;;;;14.07;8.80;;;;;;;;;;5116557;28;20643;-79
2023/03/06 13:00:59;;;;;;;15.05;9.70;;;;;;;;;;5116308;28;20213;-79
2023/03/06 13:03:44;;;;;;;14.45;10.15;;;;;;;;;;5116728;28;20171;-79
2023/03/06 13:06:26;;;;;;;14.57;6.93;;;;;;;;;;5116614;28;20306;-79
2023/03/06 13:09:11;;;;;;;15.38;8.60;;;;;;;;;;5115830;28;20156;-79
2023/03/06 13:11:56;;;;;;;16.13;9.85;;;;;;;;;;5115719;28;20188;-79
2023/03/06 13:14:23;;;;;;;15.77;8.77;;;;;;;;;;5116593;28;20170;-78
2023/03/06 13:16:50;;;;;;;24.25;10.48;;;;;;;;;;5116498;28;20172;-79
2023/03/06 13:19:22;;;;;;;16.63;10.82;;;;;;;;;;5098206;28;20179;-79
2023/03/06 13:21:54;;;;;;;14.27;9.05;;;;;;;;;;5115611;28;20279;-78
2023/03/06 13:24:21;;;;;;;16.88;9.00;;;;;;;;;;5115896;28;20205;-78
2023/03/06 13:26:49;;;;;;;12.60;7.57;;;;;;;;;;5116336;28;20179;-79
2023/03/06 13:29:35;;;;;;;11.93;7.57;;;;;;;;;;5098233;28;20184;-79
2023/03/06 13:32:01;;;;;;;15.57;9.23;;;;;;;;;;5116289;28;20514;-79
2023/03/06 13:34:32;;;;;;;28.33;18.30;;;;;;;;;;5117086;28;20175;-79
2023/03/06 13:37:17;;;;;;;15.88;10.10;;;;;;;;;;5116055;28;20489;-79
2023/03/06 13:39:58;;;;;;;17.85;10.07;;;;;;;;;;5116166;28;20187;-78
2023/03/06 13:42:42;;;;;;;15.77;10.57;;;;;;;;;;5115857;28;20539;-79
2023/03/06 13:45:14;;;;;;;18.80;11.55;;;;;;;;;;5116278;28;20175;-79
2023/03/06 13:47:43;;;;;;;17.48;11.48;;;;;;;;;;5116108;28;20168;-79
2023/03/06 13:50:11;;;;;;;18.30;10.95;;;;;;;;;;5116355;28;20534;-79
2023/03/06 13:52:43;;;;;;;16.75;11.63;;;;;;;;;;5115758;28;20170;-79
2023/03/06 13:55:24;;;;;;;16.67;11.52;;;;;;;;;;5116202;28;20178;-79
2023/03/06 13:57:53;;;;;;;13.95;9.18;;;;;;;;;;5116355;28;20160;-79
2023/03/06 14:00:37;;;;;;;17.38;10.07;;;;;;;;;;5115706;28;20181;-79
2023/03/06 14:03:05;;;;;;;12.77;9.48;;;;;;;;;;5115510;28;20171;-78
2023/03/06 14:05:41;;;;;;;18.63;10.35;;;;;;;;;;5115136;28;20234;-79
2023/03/06 14:08:15;;;;;;;19.13;9.90;;;;;;;;;;5097146;28;20171;-78
2023/03/06 14:10:41;;;;;;;18.70;10.45;;;;;;;;;;5115613;28;20251;-79
2023/03/06 14:13:14;;;;;;;17.88;11.48;;;;;;;;;;5115719;28;20181;-79
2023/03/06 14:15:43;;;;;;;17.40;11.57;;;;;;;;;;5116014;28;20159;-80
2023/03/06 14:18:15;;;;;;;18.30;10.55;;;;;;;;;;5116112;28;20234;-79
2023/03/06 14:20:47;;;;;;;18.63;10.70;;;;;;;;;;5117071;28;20208;-83
2023/03/06 14:23:15;;;;;;;16.55;11.55;;;;;;;;;;5119437;28;20199;-79
2023/03/06 14:25:41;;;;;;;20.45;11.98;;;;;;;;;;5100626;28;20173;-84
2023/03/06 14:28:19;;;;;;;17.75;11.25;;;;;;;;;;5119066;28;20175;-78